Time;durP1;ratioP1;P1;durP2;ratioP2;P2;SDS_P1;SDS_P2;PMS_P1;PMS_P2;Temp;Humidity;BMP_temperature;BMP_pressure;BME280_temperature;BME280_humidity;BME280_pressure;Samples;Min_cycle;Max_cycle;Signal;HPM_P1;HPM_P2
2021/09/04 00:01:19;;;;;;;48.55;30.20;;;;;;;;;;5096710;28;20073;-70
2021/09/04 00:03:45;;;;;;;54.08;28.65;;;;;;;;;;5096268;28;20023;-70
2021/09/04 00:06:11;;;;;;;51.85;28.30;;;;;;;;;;5112901;28;20027;-70
2021/09/04 00:08:38;;;;;;;55.70;30.23;;;;;;;;;;5095156;28;20030;-70
2021/09/04 00:11:04;;;;;;;55.58;30.65;;;;;;;;;;5096505;28;20516;-70
2021/09/04 00:13:30;;;;;;;56.72;31.10;;;;;;;;;;5114139;28;20029;-70
2021/09/04 00:15:56;;;;;;;56.53;30.92;;;;;;;;;;5114006;28;20055;-70
2021/09/04 00:18:22;;;;;;;54.22;31.33;;;;;;;;;;5094506;28;20031;-70
2021/09/04 00:20:48;;;;;;;55.10;30.23;;;;;;;;;;5113474;28;20027;-71
2021/09/04 00:23:14;;;;;;;57.20;32.38;;;;;;;;;;5104538;28;20024;-71
2021/09/04 00:25:40;;;;;;;58.92;30.23;;;;;;;;;;5111069;28;20390;-69
2021/09/04 00:28:06;;;;;;;49.60;28.77;;;;;;;;;;5112783;28;20028;-70
2021/09/04 00:30:32;;;;;;;52.17;28.88;;;;;;;;;;5111934;28;20062;-69
2021/09/04 00:32:58;;;;;;;50.92;27.15;;;;;;;;;;5113970;28;20015;-69
2021/09/04 00:35:24;;;;;;;49.50;29.38;;;;;;;;;;5111500;28;20040;-69
2021/09/04 00:37:50;;;;;;;51.60;28.80;;;;;;;;;;5107670;28;20027;-70
2021/09/04 00:40:16;;;;;;;54.25;30.63;;;;;;;;;;5114388;28;20027;-70
2021/09/04 00:42:42;;;;;;;52.95;29.52;;;;;;;;;;5113540;28;20031;-70
2021/09/04 00:45:09;;;;;;;49.35;28.38;;;;;;;;;;5113433;28;20023;-69
2021/09/04 00:47:35;;;;;;;54.42;28.98;;;;;;;;;;5113859;28;20031;-70
2021/09/04 00:50:01;;;;;;;51.78;28.98;;;;;;;;;;5093584;28;20059;-69
2021/09/04 00:52:28;;;;;;;55.00;29.55;;;;;;;;;;5113011;28;20509;-70
2021/09/04 00:54:54;;;;;;;53.47;27.08;;;;;;;;;;5113948;28;20445;-70
2021/09/04 00:57:20;;;;;;;62.70;32.47;;;;;;;;;;5113769;28;20111;-70
2021/09/04 00:59:46;;;;;;;57.20;29.13;;;;;;;;;;5093859;28;20062;-70
2021/09/04 01:02:12;;;;;;;46.75;28.08;;;;;;;;;;5113202;28;20045;-70
2021/09/04 01:04:38;;;;;;;57.45;32.67;;;;;;;;;;5112914;28;20031;-70
2021/09/04 01:07:04;;;;;;;52.15;29.75;;;;;;;;;;5113432;28;20011;-69
2021/09/04 01:09:30;;;;;;;58.95;30.67;;;;;;;;;;5112336;28;20578;-69
2021/09/04 01:11:56;;;;;;;55.40;29.70;;;;;;;;;;5113509;28;20023;-71
2021/09/04 01:14:23;;;;;;;58.50;30.48;;;;;;;;;;5095236;28;20035;-70
2021/09/04 01:16:49;;;;;;;61.20;31.17;;;;;;;;;;5112512;28;20504;-69
2021/09/04 01:19:15;;;;;;;52.80;31.45;;;;;;;;;;5112171;28;20023;-70
2021/09/04 01:21:41;;;;;;;55.08;28.83;;;;;;;;;;5110951;28;20024;-70
2021/09/04 01:24:07;;;;;;;53.88;28.23;;;;;;;;;;5112787;28;20027;-69
2021/09/04 01:26:33;;;;;;;55.45;29.85;;;;;;;;;;5113385;28;20107;-69
2021/09/04 01:29:00;;;;;;;55.70;31.33;;;;;;;;;;5111896;28;20020;-70
2021/09/04 01:31:27;;;;;;;52.15;30.23;;;;;;;;;;5113073;28;20039;-70
2021/09/04 01:33:53;;;;;;;57.50;29.98;;;;;;;;;;5112331;28;20035;-69
2021/09/04 01:36:28;;;;;;;56.55;30.50;;;;;;;;;;5112630;28;20451;-69
2021/09/04 01:38:54;;;;;;;54.38;31.15;;;;;;;;;;5111772;28;20023;-70
2021/09/04 01:41:20;;;;;;;56.38;32.65;;;;;;;;;;5112941;28;20081;-70
2021/09/04 01:43:46;;;;;;;52.75;31.15;;;;;;;;;;5113095;28;20111;-70
2021/09/04 01:46:12;;;;;;;57.28;30.33;;;;;;;;;;5112312;28;20478;-70
2021/09/04 01:48:38;;;;;;;54.58;28.40;;;;;;;;;;5111832;28;20521;-69
2021/09/04 01:51:04;;;;;;;59.22;33.30;;;;;;;;;;5112393;28;20051;-69
2021/09/04 01:53:30;;;;;;;57.45;33.47;;;;;;;;;;5112534;28;20020;-70
2021/09/04 01:55:56;;;;;;;54.92;30.98;;;;;;;;;;5112384;28;20479;-70
2021/09/04 01:58:22;;;;;;;56.42;31.98;;;;;;;;;;5111301;28;20028;-70
2021/09/04 02:00:48;;;;;;;49.72;28.20;;;;;;;;;;5112528;28;20024;-69
2021/09/04 02:03:14;;;;;;;61.80;30.27;;;;;;;;;;5110970;28;20016;-70
2021/09/04 02:05:40;;;;;;;58.78;32.10;;;;;;;;;;5112351;28;20015;-69
2021/09/04 02:08:06;;;;;;;54.08;31.42;;;;;;;;;;5111039;28;20015;-70
2021/09/04 02:10:32;;;;;;;56.38;31.42;;;;;;;;;;5112720;28;20039;-69
2021/09/04 02:12:59;;;;;;;59.83;31.00;;;;;;;;;;5112367;28;20019;-69
2021/09/04 02:15:25;;;;;;;54.63;33.13;;;;;;;;;;5112356;28;20457;-70
2021/09/04 02:17:51;;;;;;;54.05;32.63;;;;;;;;;;5111091;28;20062;-70
2021/09/04 02:20:17;;;;;;;58.42;32.40;;;;;;;;;;5112075;28;20027;-69
2021/09/04 02:22:44;;;;;;;49.38;30.05;;;;;;;;;;5111262;28;20016;-69
2021/09/04 02:25:10;;;;;;;54.15;29.55;;;;;;;;;;5093792;28;20020;-69
2021/09/04 02:27:37;;;;;;;53.20;30.55;;;;;;;;;;5111642;28;20030;-69
2021/09/04 02:30:04;;;;;;;54.83;30.15;;;;;;;;;;5092570;28;20019;-69
2021/09/04 02:32:30;;;;;;;58.67;32.33;;;;;;;;;;5111849;28;20024;-70
2021/09/04 02:34:56;;;;;;;59.17;29.77;;;;;;;;;;5111494;28;20024;-69
2021/09/04 02:37:22;;;;;;;59.58;33.03;;;;;;;;;;5111386;28;20408;-70
2021/09/04 02:39:49;;;;;;;59.70;31.27;;;;;;;;;;5110310;28;20606;-69
2021/09/04 02:42:15;;;;;;;55.90;29.27;;;;;;;;;;5111505;28;20185;-69
2021/09/04 02:44:41;;;;;;;58.20;29.52;;;;;;;;;;5111423;28;20024;-69
2021/09/04 02:47:07;;;;;;;57.10;29.48;;;;;;;;;;5092693;28;20566;-69
2021/09/04 02:49:33;;;;;;;56.63;31.33;;;;;;;;;;5091677;28;20031;-69
2021/09/04 02:52:00;;;;;;;56.13;32.42;;;;;;;;;;5110927;28;20101;-69
2021/09/04 02:54:26;;;;;;;55.42;31.42;;;;;;;;;;5111514;28;20080;-70
2021/09/04 02:56:52;;;;;;;56.90;29.35;;;;;;;;;;5111762;28;20024;-69
2021/09/04 02:59:18;;;;;;;63.63;30.77;;;;;;;;;;5109424;28;20030;-69
2021/09/04 03:01:44;;;;;;;57.25;29.98;;;;;;;;;;5111107;28;20053;-69
2021/09/04 03:04:10;;;;;;;67.43;34.95;;;;;;;;;;5111383;28;20085;-68
2021/09/04 03:06:36;;;;;;;59.47;29.42;;;;;;;;;;5111519;28;20019;-70
2021/09/04 03:09:02;;;;;;;60.40;31.75;;;;;;;;;;5109984;28;20024;-70
2021/09/04 03:11:28;;;;;;;62.38;31.00;;;;;;;;;;5111227;28;20031;-70
2021/09/04 03:13:54;;;;;;;52.50;29.58;;;;;;;;;;5111267;28;20028;-69
2021/09/04 03:16:20;;;;;;;52.63;29.27;;;;;;;;;;5111240;28;20042;-69
2021/09/04 03:18:46;;;;;;;61.45;32.20;;;;;;;;;;5109613;28;20024;-69
2021/09/04 03:21:12;;;;;;;62.08;32.58;;;;;;;;;;5091547;28;20032;-69
2021/09/04 03:23:38;;;;;;;54.97;29.02;;;;;;;;;;5111064;28;20107;-69
2021/09/04 03:26:05;;;;;;;55.95;28.80;;;;;;;;;;5111331;28;20028;-69
2021/09/04 03:28:31;;;;;;;59.72;28.98;;;;;;;;;;5109326;28;20028;-70
2021/09/04 03:30:57;;;;;;;53.85;32.20;;;;;;;;;;5110965;28;20038;-69
2021/09/04 03:33:23;;;;;;;50.30;29.30;;;;;;;;;;5110647;28;20069;-69
2021/09/04 03:35:49;;;;;;;53.40;29.27;;;;;;;;;;5111121;28;20059;-69
2021/09/04 03:38:16;;;;;;;59.55;30.58;;;;;;;;;;5099837;28;20489;-69
2021/09/04 03:40:42;;;;;;;54.10;29.58;;;;;;;;;;5111270;28;20020;-70
2021/09/04 03:43:08;;;;;;;61.05;28.33;;;;;;;;;;5110910;28;20019;-69
2021/09/04 03:45:35;;;;;;;59.67;30.05;;;;;;;;;;5110598;28;20016;-69
2021/09/04 03:48:01;;;;;;;58.33;30.58;;;;;;;;;;5109209;28;20051;-69
2021/09/04 03:50:27;;;;;;;55.28;30.45;;;;;;;;;;5110384;28;20024;-70
2021/09/04 03:52:53;;;;;;;56.97;28.83;;;;;;;;;;5103429;28;20035;-69
2021/09/04 03:55:19;;;;;;;69.43;32.47;;;;;;;;;;5111399;28;20024;-70
2021/09/04 03:57:45;;;;;;;55.45;28.48;;;;;;;;;;5092152;28;20028;-69
2021/09/04 04:00:11;;;;;;;63.58;31.23;;;;;;;;;;5109811;28;20039;-70
2021/09/04 04:02:37;;;;;;;61.30;32.80;;;;;;;;;;5110252;28;20039;-69
2021/09/04 04:05:03;;;;;;;58.92;30.98;;;;;;;;;;5110847;28;20019;-70
2021/09/04 04:07:29;;;;;;;57.63;31.45;;;;;;;;;;5110934;28;20036;-72
2021/09/04 04:09:55;;;;;;;59.67;30.52;;;;;;;;;;5109053;28;20094;-71
2021/09/04 04:12:22;;;;;;;57.33;30.55;;;;;;;;;;5109538;28;20035;-70
2021/09/04 04:14:48;;;;;;;57.35;30.48;;;;;;;;;;5075529;28;20050;-71
2021/09/04 04:17:14;;;;;;;64.07;30.95;;;;;;;;;;5099464;28;20031;-70
2021/09/04 04:19:40;;;;;;;58.40;31.13;;;;;;;;;;5101982;28;20028;-70
2021/09/04 04:22:06;;;;;;;64.13;30.35;;;;;;;;;;5108867;28;20020;-70
2021/09/04 04:24:32;;;;;;;60.65;31.02;;;;;;;;;;5110452;28;20020;-73
2021/09/04 04:27:01;;;;;;;58.72;29.85;;;;;;;;;;5095711;28;20015;-69
2021/09/04 04:29:27;;;;;;;62.78;31.00;;;;;;;;;;5103233;28;20023;-69
2021/09/04 04:31:53;;;;;;;64.40;30.70;;;;;;;;;;5108733;28;20070;-70
2021/09/04 04:34:19;;;;;;;64.10;30.33;;;;;;;;;;5095619;28;20108;-70
2021/09/04 04:36:45;;;;;;;59.55;30.83;;;;;;;;;;5114119;28;20019;-70
2021/09/04 04:39:13;;;;;;;58.80;30.75;;;;;;;;;;5094155;28;20039;-69
2021/09/04 04:41:39;;;;;;;59.17;28.95;;;;;;;;;;5113110;28;20043;-70
2021/09/04 04:44:05;;;;;;;59.05;29.35;;;;;;;;;;5113734;28;20469;-69
2021/09/04 04:46:31;;;;;;;60.08;30.90;;;;;;;;;;5112873;28;20070;-69
2021/09/04 04:48:57;;;;;;;53.97;28.00;;;;;;;;;;5110874;28;20047;-69
2021/09/04 04:51:23;;;;;;;53.85;27.17;;;;;;;;;;5094511;28;20040;-69
2021/09/04 04:53:49;;;;;;;58.97;26.63;;;;;;;;;;5118421;27;20024;-69
2021/09/04 04:56:15;;;;;;;53.55;27.63;;;;;;;;;;5114128;28;20027;-69
2021/09/04 04:58:41;;;;;;;50.00;26.75;;;;;;;;;;5112451;28;20069;-69
2021/09/04 05:01:07;;;;;;;52.50;28.20;;;;;;;;;;5113727;28;20091;-69
2021/09/04 05:03:33;;;;;;;50.50;28.67;;;;;;;;;;5113717;28;20020;-70
2021/09/04 05:05:59;;;;;;;59.03;27.00;;;;;;;;;;5094987;28;20463;-69
2021/09/04 05:08:26;;;;;;;56.15;26.83;;;;;;;;;;5093335;28;20114;-69
2021/09/04 05:10:52;;;;;;;55.22;28.65;;;;;;;;;;5111957;28;20334;-69
2021/09/04 05:13:18;;;;;;;57.10;28.63;;;;;;;;;;5095102;28;20180;-69
2021/09/04 05:15:44;;;;;;;50.75;25.83;;;;;;;;;;5112285;28;20032;-69
2021/09/04 05:18:10;;;;;;;63.42;28.45;;;;;;;;;;5091721;28;20593;-69
2021/09/04 05:20:37;;;;;;;48.88;23.42;;;;;;;;;;5112360;28;20073;-69
2021/09/04 05:23:03;;;;;;;54.53;27.95;;;;;;;;;;5112694;28;20024;-69
2021/09/04 05:25:29;;;;;;;50.38;24.55;;;;;;;;;;5113063;27;20043;-69
2021/09/04 05:27:56;;;;;;;51.45;23.88;;;;;;;;;;5091937;28;20020;-69
2021/09/04 05:30:22;;;;;;;57.83;27.25;;;;;;;;;;5112034;28;20077;-70
2021/09/04 05:32:48;;;;;;;49.58;25.27;;;;;;;;;;5112429;28;20026;-69
2021/09/04 05:35:14;;;;;;;51.17;25.77;;;;;;;;;;5111721;28;20034;-69
2021/09/04 05:37:42;;;;;;;49.53;24.73;;;;;;;;;;5111955;28;20024;-69
2021/09/04 05:40:08;;;;;;;48.67;24.30;;;;;;;;;;5109109;28;20019;-69
2021/09/04 05:42:34;;;;;;;54.25;27.27;;;;;;;;;;5094783;28;20488;-70
2021/09/04 05:45:00;;;;;;;48.17;25.80;;;;;;;;;;5094496;28;20516;-69
2021/09/04 05:47:26;;;;;;;48.97;24.63;;;;;;;;;;5108140;28;20020;-69
2021/09/04 05:49:52;;;;;;;52.65;23.98;;;;;;;;;;5111356;28;20023;-69
2021/09/04 05:52:18;;;;;;;53.80;27.73;;;;;;;;;;5093325;28;20074;-69
2021/09/04 05:54:45;;;;;;;46.15;24.60;;;;;;;;;;5094665;28;20047;-69
2021/09/04 05:57:11;;;;;;;56.90;26.15;;;;;;;;;;5110448;28;20035;-69
2021/09/04 05:59:37;;;;;;;48.03;25.15;;;;;;;;;;5091062;28;20043;-69
2021/09/04 06:02:03;;;;;;;45.95;23.85;;;;;;;;;;5107613;28;20084;-71
2021/09/04 06:04:29;;;;;;;46.15;25.20;;;;;;;;;;5111771;28;20019;-69
2021/09/04 06:06:55;;;;;;;47.85;22.90;;;;;;;;;;5111811;28;20023;-68
2021/09/04 06:09:22;;;;;;;45.97;24.17;;;;;;;;;;5088826;28;20011;-69
2021/09/04 06:11:49;;;;;;;47.90;24.30;;;;;;;;;;5112568;28;20030;-69
2021/09/04 06:14:15;;;;;;;51.83;25.88;;;;;;;;;;5112321;28;20030;-69
2021/09/04 06:16:41;;;;;;;52.33;28.17;;;;;;;;;;5094493;28;20028;-75
2021/09/04 06:19:07;;;;;;;61.78;29.33;;;;;;;;;;5111318;28;20031;-70
2021/09/04 06:21:33;;;;;;;58.58;30.25;;;;;;;;;;5092548;28;20020;-70
2021/09/04 06:24:00;;;;;;;70.82;33.67;;;;;;;;;;5112000;28;20022;-71
2021/09/04 06:26:27;;;;;;;67.00;34.38;;;;;;;;;;5112025;28;20030;-71
2021/09/04 06:28:53;;;;;;;80.03;39.17;;;;;;;;;;5110673;28;20408;-70
2021/09/04 06:31:19;;;;;;;77.45;41.40;;;;;;;;;;5111858;28;20031;-71
2021/09/04 06:33:45;;;;;;;88.38;47.83;;;;;;;;;;5111789;28;20035;-73
2021/09/04 06:36:11;;;;;;;100.65;54.55;;;;;;;;;;5112123;28;20024;-74
2021/09/04 06:38:37;;;;;;;98.88;50.33;;;;;;;;;;5110982;28;20031;-70
2021/09/04 06:41:03;;;;;;;108.88;59.47;;;;;;;;;;5111601;28;20024;-72
2021/09/04 06:43:29;;;;;;;120.75;59.72;;;;;;;;;;5111490;28;20019;-72
2021/09/04 06:45:55;;;;;;;135.15;66.03;;;;;;;;;;5111337;28;20035;-70
2021/09/04 06:48:21;;;;;;;142.52;60.83;;;;;;;;;;5088474;28;20032;-69
2021/09/04 06:50:47;;;;;;;121.28;60.72;;;;;;;;;;5090441;28;20078;-70
2021/09/04 06:53:13;;;;;;;125.85;57.72;;;;;;;;;;5107105;28;20035;-69
2021/09/04 06:55:39;;;;;;;128.18;50.33;;;;;;;;;;5111068;28;20031;-70
2021/09/04 06:58:05;;;;;;;124.32;53.95;;;;;;;;;;5109164;28;20028;-70
2021/09/04 07:00:31;;;;;;;111.95;49.08;;;;;;;;;;5110346;28;20080;-70
2021/09/04 07:02:57;;;;;;;102.43;47.38;;;;;;;;;;5108156;28;20080;-71
2021/09/04 07:05:24;;;;;;;103.80;49.28;;;;;;;;;;5109573;28;20032;-69
2021/09/04 07:07:50;;;;;;;110.47;50.55;;;;;;;;;;5109233;28;20043;-68
2021/09/04 07:10:16;;;;;;;102.60;52.00;;;;;;;;;;5110133;28;20023;-73
2021/09/04 07:12:42;;;;;;;104.65;49.20;;;;;;;;;;5092366;28;20250;-72
2021/09/04 07:15:09;;;;;;;100.55;47.45;;;;;;;;;;5109316;28;20020;-69
2021/09/04 07:17:35;;;;;;;108.90;51.65;;;;;;;;;;5108990;28;20039;-73
2021/09/04 07:20:01;;;;;;;103.72;49.88;;;;;;;;;;5106860;28;20110;-70
2021/09/04 07:22:27;;;;;;;98.15;43.28;;;;;;;;;;5108904;28;20063;-69
2021/09/04 07:24:53;;;;;;;105.70;47.47;;;;;;;;;;5106906;28;20024;-69
2021/09/04 07:27:19;;;;;;;104.82;47.83;;;;;;;;;;5111438;28;20027;-70
2021/09/04 07:29:45;;;;;;;99.80;45.00;;;;;;;;;;5089494;28;20091;-69
2021/09/04 07:32:11;;;;;;;100.43;45.95;;;;;;;;;;5091189;28;20039;-70
2021/09/04 07:34:37;;;;;;;101.93;42.60;;;;;;;;;;5109365;28;20028;-70
2021/09/04 07:37:03;;;;;;;108.20;48.67;;;;;;;;;;5110274;28;20032;-70
2021/09/04 07:39:29;;;;;;;125.57;51.22;;;;;;;;;;5102977;28;20532;-69
2021/09/04 07:41:55;;;;;;;112.90;46.42;;;;;;;;;;5109330;28;20028;-69
2021/09/04 07:44:21;;;;;;;116.45;44.35;;;;;;;;;;5110216;28;20532;-70
2021/09/04 07:46:47;;;;;;;119.80;49.67;;;;;;;;;;5108198;28;20104;-69
2021/09/04 07:49:13;;;;;;;102.88;45.10;;;;;;;;;;5090535;28;20055;-70
2021/09/04 07:51:39;;;;;;;126.50;50.60;;;;;;;;;;5110770;28;20513;-70
2021/09/04 07:54:05;;;;;;;126.57;51.28;;;;;;;;;;5109023;28;20073;-69
2021/09/04 07:56:31;;;;;;;135.10;54.83;;;;;;;;;;5106393;28;20027;-69
2021/09/04 07:58:57;;;;;;;140.50;61.17;;;;;;;;;;5107456;28;20031;-70
2021/09/04 08:01:23;;;;;;;139.35;61.25;;;;;;;;;;5108361;28;20024;-68
2021/09/04 08:03:50;;;;;;;136.65;56.72;;;;;;;;;;5112524;28;20062;-69
2021/09/04 08:06:16;;;;;;;139.93;59.05;;;;;;;;;;5112140;28;20064;-69
2021/09/04 08:08:42;;;;;;;140.88;57.58;;;;;;;;;;5089826;28;20473;-69
2021/09/04 08:11:08;;;;;;;137.15;53.92;;;;;;;;;;5114415;28;20023;-69
2021/09/04 08:13:34;;;;;;;136.00;58.58;;;;;;;;;;5109324;28;20024;-70
2021/09/04 08:16:00;;;;;;;127.43;55.45;;;;;;;;;;5112485;28;20023;-68
2021/09/04 08:18:26;;;;;;;142.35;62.67;;;;;;;;;;5110356;28;20024;-70
2021/09/04 08:20:52;;;;;;;134.20;61.42;;;;;;;;;;5094882;28;20497;-69
2021/09/04 08:23:18;;;;;;;140.60;69.68;;;;;;;;;;5113659;28;20055;-71
2021/09/04 08:25:44;;;;;;;145.20;66.72;;;;;;;;;;5113973;28;20012;-70
2021/09/04 08:28:10;;;;;;;150.40;60.53;;;;;;;;;;5109292;28;20234;-72
2021/09/04 08:30:37;;;;;;;146.07;62.17;;;;;;;;;;5112751;28;20035;-70
2021/09/04 08:33:03;;;;;;;143.75;64.25;;;;;;;;;;5112019;28;20027;-70
2021/09/04 08:35:29;;;;;;;168.90;71.88;;;;;;;;;;5110523;28;20165;-70
2021/09/04 08:37:55;;;;;;;166.40;70.47;;;;;;;;;;5109325;28;20073;-71
2021/09/04 08:40:22;;;;;;;178.13;74.28;;;;;;;;;;5112387;28;20019;-70
2021/09/04 08:42:48;;;;;;;184.68;72.30;;;;;;;;;;5111074;28;20045;-69
2021/09/04 08:45:14;;;;;;;176.70;78.22;;;;;;;;;;5112193;28;20028;-69
2021/09/04 08:47:41;;;;;;;194.02;84.05;;;;;;;;;;5102761;28;20058;-70
2021/09/04 08:50:07;;;;;;;188.30;79.60;;;;;;;;;;5110393;28;20132;-69
2021/09/04 08:52:33;;;;;;;187.52;84.70;;;;;;;;;;5092957;28;20056;-70
2021/09/04 08:54:59;;;;;;;183.02;79.05;;;;;;;;;;5113884;28;20020;-71
2021/09/04 08:57:25;;;;;;;188.88;86.28;;;;;;;;;;5094137;28;20114;-71
2021/09/04 08:59:52;;;;;;;183.25;71.63;;;;;;;;;;5110364;28;20022;-71
2021/09/04 09:02:19;;;;;;;184.57;83.03;;;;;;;;;;5093996;28;20023;-72
2021/09/04 09:04:58;;;;;;;187.63;79.82;;;;;;;;;;5101736;28;20031;-70
2021/09/04 09:07:37;;;;;;;202.10;92.20;;;;;;;;;;5107190;28;20062;-71
2021/09/04 09:10:03;;;;;;;191.55;85.80;;;;;;;;;;5110911;28;20034;-69
2021/09/04 09:12:29;;;;;;;194.85;85.88;;;;;;;;;;5111593;28;20027;-72
2021/09/04 09:14:56;;;;;;;181.45;79.53;;;;;;;;;;5111875;28;20031;-72
2021/09/04 09:17:26;;;;;;;177.18;88.47;;;;;;;;;;5113057;28;20042;-71
2021/09/04 09:20:02;;;;;;;187.38;86.30;;;;;;;;;;5089984;28;20105;-72
2021/09/04 09:22:28;;;;;;;193.13;90.53;;;;;;;;;;5109473;28;20061;-69
2021/09/04 09:24:55;;;;;;;192.10;82.53;;;;;;;;;;5108847;28;20077;-69
2021/09/04 09:27:21;;;;;;;187.85;81.05;;;;;;;;;;5112597;28;20024;-70
2021/09/04 09:29:49;;;;;;;153.55;72.55;;;;;;;;;;5110093;28;20076;-69
2021/09/04 09:32:15;;;;;;;147.43;70.15;;;;;;;;;;5111945;28;20352;-71
2021/09/04 09:34:43;;;;;;;139.07;67.65;;;;;;;;;;5093232;28;20042;-71
2021/09/04 09:37:10;;;;;;;109.65;57.78;;;;;;;;;;5093877;28;20015;-71
2021/09/04 09:39:37;;;;;;;99.55;49.90;;;;;;;;;;5109254;28;20015;-70
2021/09/04 09:42:04;;;;;;;106.40;53.15;;;;;;;;;;5085338;28;20563;-71
2021/09/04 09:44:32;;;;;;;88.10;45.28;;;;;;;;;;5110823;28;20101;-71
2021/09/04 09:47:00;;;;;;;85.43;42.95;;;;;;;;;;5105218;28;20065;-69
2021/09/04 09:49:43;;;;;;;71.55;36.65;;;;;;;;;;5109842;28;20092;-70
2021/09/04 09:52:13;;;;;;;70.72;38.42;;;;;;;;;;5112440;27;20076;-71
2021/09/04 09:54:39;;;;;;;76.00;39.80;;;;;;;;;;5104482;28;20121;-71
2021/09/04 09:57:07;;;;;;;71.45;38.22;;;;;;;;;;5111942;28;20020;-70
2021/09/04 09:59:33;;;;;;;70.43;38.25;;;;;;;;;;5109247;28;20034;-70
2021/09/04 10:02:00;;;;;;;76.28;38.97;;;;;;;;;;5111944;28;20042;-70
2021/09/04 10:04:29;;;;;;;73.95;42.05;;;;;;;;;;5110900;28;20036;-71
2021/09/04 10:06:56;;;;;;;77.75;40.33;;;;;;;;;;5112181;28;20015;-70
2021/09/04 10:09:25;;;;;;;69.25;37.72;;;;;;;;;;5109047;28;20043;-71
2021/09/04 10:11:52;;;;;;;64.28;35.60;;;;;;;;;;5110946;28;20038;-71
2021/09/04 10:14:19;;;;;;;62.72;32.42;;;;;;;;;;5111380;28;20027;-70
2021/09/04 10:16:46;;;;;;;63.08;31.88;;;;;;;;;;5111916;28;20023;-69
2021/09/04 10:19:12;;;;;;;58.17;31.38;;;;;;;;;;5109027;28;20024;-70
2021/09/04 10:21:39;;;;;;;60.05;33.83;;;;;;;;;;5110749;28;20019;-70
2021/09/04 10:24:07;;;;;;;57.35;31.83;;;;;;;;;;5107901;28;20031;-71
2021/09/04 10:26:33;;;;;;;53.28;32.28;;;;;;;;;;5111416;28;20111;-71
2021/09/04 10:29:06;;;;;;;57.50;29.70;;;;;;;;;;5108857;28;20028;-70
2021/09/04 10:31:50;;;;;;;59.53;32.58;;;;;;;;;;5108428;28;20409;-70
2021/09/04 10:34:17;;;;;;;62.15;31.40;;;;;;;;;;5103005;28;20042;-70
2021/09/04 10:36:56;;;;;;;56.67;31.45;;;;;;;;;;5090186;28;20031;-71
2021/09/04 10:39:23;;;;;;;47.67;27.83;;;;;;;;;;5108034;28;20030;-71
2021/09/04 10:41:50;;;;;;;45.40;28.75;;;;;;;;;;5105472;28;20508;-70
2021/09/04 10:44:16;;;;;;;50.22;27.85;;;;;;;;;;5110030;28;20034;-70
2021/09/04 10:46:42;;;;;;;44.40;27.25;;;;;;;;;;5108758;28;20505;-70
2021/09/04 10:49:09;;;;;;;52.42;30.30;;;;;;;;;;5102964;28;20081;-71
2021/09/04 10:51:45;;;;;;;52.30;31.20;;;;;;;;;;5090494;28;20051;-71
2021/09/04 10:54:11;;;;;;;48.92;31.08;;;;;;;;;;5106785;28;20038;-72
2021/09/04 10:56:40;;;;;;;41.15;25.73;;;;;;;;;;5110491;28;20027;-70
2021/09/04 10:59:06;;;;;;;46.95;25.58;;;;;;;;;;5100844;28;20062;-73
2021/09/04 11:01:38;;;;;;;49.17;29.38;;;;;;;;;;5109665;28;20089;-70
2021/09/04 11:04:03;;;;;;;;;;;;;;;;;;5110421;28;20026;-70
2021/09/04 11:06:30;;;;;;;50.67;27.40;;;;;;;;;;5102225;28;20285;-70
2021/09/04 11:08:56;;;;;;;42.00;25.58;;;;;;;;;;5089685;28;20110;-70
2021/09/04 11:11:26;;;;;;;47.10;28.17;;;;;;;;;;5111056;28;20023;-70
2021/09/04 11:13:53;;;;;;;47.40;28.05;;;;;;;;;;5103923;28;20115;-70
2021/09/04 11:16:28;;;;;;;49.08;28.50;;;;;;;;;;5110734;28;20076;-71
2021/09/04 11:18:56;;;;;;;47.33;25.48;;;;;;;;;;5082481;28;20031;-70
2021/09/04 11:21:22;;;;;;;49.05;24.73;;;;;;;;;;5103486;28;20027;-71
2021/09/04 11:23:50;;;;;;;46.90;28.42;;;;;;;;;;5092064;28;20027;-71
2021/09/04 11:26:16;;;;;;;50.08;27.90;;;;;;;;;;5102830;28;20031;-70
2021/09/04 11:28:42;;;;;;;48.95;27.85;;;;;;;;;;5103251;28;20064;-70
2021/09/04 11:31:08;;;;;;;45.60;28.52;;;;;;;;;;5092088;28;20032;-70
2021/09/04 11:33:34;;;;;;;49.67;29.20;;;;;;;;;;5109584;28;20024;-72
2021/09/04 11:36:00;;;;;;;48.42;27.45;;;;;;;;;;5110254;28;20031;-70
2021/09/04 11:38:26;;;;;;;52.05;28.13;;;;;;;;;;5107803;28;20404;-70
2021/09/04 11:40:53;;;;;;;56.10;29.80;;;;;;;;;;5110007;28;20051;-70
2021/09/04 11:43:26;;;;;;;51.50;30.30;;;;;;;;;;5091555;28;20035;-71
2021/09/04 11:46:03;;;;;;;51.13;28.65;;;;;;;;;;5110176;28;20038;-70
2021/09/04 11:48:29;;;;;;;51.50;32.22;;;;;;;;;;5106477;28;20084;-71
2021/09/04 11:51:08;;;;;;;59.65;31.17;;;;;;;;;;5110067;28;20134;-71
2021/09/04 11:53:34;;;;;;;55.13;32.25;;;;;;;;;;5108242;28;20031;-70
2021/09/04 11:56:00;;;;;;;55.65;32.58;;;;;;;;;;5109961;28;20027;-71
2021/09/04 11:58:27;;;;;;;50.20;29.13;;;;;;;;;;5107757;28;20024;-71
2021/09/04 12:00:53;;;;;;;51.97;30.33;;;;;;;;;;5107869;28;20027;-70
2021/09/04 12:03:25;;;;;;;56.17;33.92;;;;;;;;;;5108052;28;20197;-71
2021/09/04 12:05:53;;;;;;;55.20;30.27;;;;;;;;;;5086966;28;20122;-71
2021/09/04 12:08:27;;;;;;;58.97;34.22;;;;;;;;;;5107316;28;20040;-71
2021/09/04 12:10:59;;;;;;;59.90;33.40;;;;;;;;;;5091142;28;20405;-71
2021/09/04 12:13:26;;;;;;;56.20;30.02;;;;;;;;;;5109422;28;20035;-71
2021/09/04 12:15:56;;;;;;;52.10;31.33;;;;;;;;;;5109769;28;20019;-70
2021/09/04 12:18:32;;;;;;;58.75;35.17;;;;;;;;;;5107393;28;20043;-71
2021/09/04 12:21:17;;;;;;;56.83;31.52;;;;;;;;;;5091703;28;20035;-71
2021/09/04 12:23:47;;;;;;;55.63;34.75;;;;;;;;;;5090881;28;20115;-72
2021/09/04 12:26:13;;;;;;;57.03;34.33;;;;;;;;;;5109917;28;20039;-71
2021/09/04 12:28:39;;;;;;;58.85;33.30;;;;;;;;;;5094522;28;20404;-71
2021/09/04 12:31:06;;;;;;;66.20;35.13;;;;;;;;;;5105718;28;20118;-70
2021/09/04 12:33:32;;;;;;;57.92;34.08;;;;;;;;;;5080792;28;20016;-70
2021/09/04 12:35:58;;;;;;;60.25;33.53;;;;;;;;;;5108509;28;20024;-71
2021/09/04 12:38:26;;;;;;;60.25;33.65;;;;;;;;;;5103683;28;20028;-71
2021/09/04 12:41:15;;;;;;;52.90;30.33;;;;;;;;;;5109255;28;20015;-71
2021/09/04 12:43:48;;;;;;;55.85;32.08;;;;;;;;;;5097782;28;20032;-70
2021/09/04 12:46:24;;;;;;;58.63;34.15;;;;;;;;;;5106054;28;20031;-70
2021/09/04 12:48:50;;;;;;;55.92;33.85;;;;;;;;;;5110554;28;20032;-71
2021/09/04 12:51:16;;;;;;;57.47;34.10;;;;;;;;;;5107374;28;20118;-71
2021/09/04 12:53:43;;;;;;;59.85;34.97;;;;;;;;;;5081345;28;20466;-73
2021/09/04 12:56:09;;;;;;;64.72;35.40;;;;;;;;;;5087798;28;20517;-73
2021/09/04 12:58:35;;;;;;;62.22;35.10;;;;;;;;;;5097755;28;20034;-72
2021/09/04 13:01:08;;;;;;;56.05;34.58;;;;;;;;;;5109076;28;20027;-73
2021/09/04 13:03:35;;;;;;;58.83;34.88;;;;;;;;;;5108793;28;20039;-70
2021/09/04 13:06:01;;;;;;;56.72;34.15;;;;;;;;;;5105048;28;20008;-71
2021/09/04 13:08:27;;;;;;;52.15;32.80;;;;;;;;;;5096845;28;20020;-71
2021/09/04 13:10:53;;;;;;;46.58;28.00;;;;;;;;;;5106201;28;20043;-71
2021/09/04 13:13:19;;;;;;;56.42;37.25;;;;;;;;;;5110303;28;20030;-71
2021/09/04 13:15:46;;;;;;;53.65;34.47;;;;;;;;;;5111771;28;20027;-71
2021/09/04 13:18:12;;;;;;;52.33;32.65;;;;;;;;;;5108220;28;20092;-71
2021/09/04 13:20:38;;;;;;;56.05;35.20;;;;;;;;;;5110455;28;20473;-71
2021/09/04 13:23:04;;;;;;;53.20;34.08;;;;;;;;;;5093211;28;20011;-72
2021/09/04 13:25:32;;;;;;;57.05;36.13;;;;;;;;;;5109138;28;20023;-71
2021/09/04 13:27:58;;;;;;;55.88;33.85;;;;;;;;;;5106239;28;20023;-70
2021/09/04 13:30:24;;;;;;;52.22;33.83;;;;;;;;;;5097339;28;20164;-72
2021/09/04 13:32:50;;;;;;;50.67;32.42;;;;;;;;;;5102863;28;20055;-72
2021/09/04 13:35:16;;;;;;;56.33;33.15;;;;;;;;;;5111899;28;20104;-72
2021/09/04 13:37:43;;;;;;;57.65;35.35;;;;;;;;;;5092226;28;20496;-70
2021/09/04 13:40:09;;;;;;;55.13;35.85;;;;;;;;;;5111324;28;20023;-71
2021/09/04 13:42:35;;;;;;;53.47;34.47;;;;;;;;;;5091986;28;20389;-71
2021/09/04 13:45:02;;;;;;;55.95;33.90;;;;;;;;;;5111756;28;20080;-70
2021/09/04 13:47:28;;;;;;;60.30;35.15;;;;;;;;;;5105920;28;20016;-70
2021/09/04 13:49:54;;;;;;;49.90;32.92;;;;;;;;;;5109510;28;20386;-72
2021/09/04 13:52:20;;;;;;;50.17;31.60;;;;;;;;;;5118481;27;20043;-71
2021/09/04 13:54:46;;;;;;;52.53;34.25;;;;;;;;;;5076115;28;20115;-71
2021/09/04 13:57:12;;;;;;;52.53;33.85;;;;;;;;;;5111307;28;20540;-71
2021/09/04 13:59:38;;;;;;;54.58;34.15;;;;;;;;;;5109432;28;20378;-71
2021/09/04 14:02:04;;;;;;;54.30;33.05;;;;;;;;;;5111722;28;20477;-73
2021/09/04 14:04:30;;;;;;;53.13;35.00;;;;;;;;;;5111788;28;20076;-71
2021/09/04 14:06:57;;;;;;;54.75;32.75;;;;;;;;;;5104614;28;20023;-71
2021/09/04 14:09:23;;;;;;;57.78;35.85;;;;;;;;;;5109292;28;20142;-72
2021/09/04 14:11:49;;;;;;;54.13;34.03;;;;;;;;;;5094402;28;20024;-71